Hudson, Maine
Current Conditions -  °F | °C
As of 7:53 PM on Tuesday 21 Oct 2014 (Local Time) from KBGR Reporting Station
Overcast Overcast  
Wind Chill: 41°   Ceiling: 1400
Heat Index: 47°   Visibility: 9mi
Dew Point: 45°   Wind: 13mph
Humidity: 93%   Direction: 30°NNE
Pressure: 30.13"   Gusts: NA
Location:  45°N, 68.88°W
Report Text: KBGR 212353Z 03011KT 9SM BKN014 OVC025 08/07 A3013 RMK AO2 RAE41 SLP202 P0002 60013 T00830072 10122 20083 51010
Loading
Personal Weather Stations






























Interactive Weather Map
Tropical Storm Tracking
New forecast layout! Learn more

10-Day Weather Forecast

Advertisements
Track Severe Weather on mobile